sensor_id;sensor_type;location;lat;lon;timestamp;pressure;altitude;pressure_sealevel;temperature;humidity
39051;BME280;24805;55.852;37.644;2022-07-09T00:01:10;99495.94;;;20.66;55.66
39051;BME280;24805;55.852;37.644;2022-07-09T00:06:12;99480.72;;;20.59;56.07
39051;BME280;24805;55.852;37.644;2022-07-09T00:11:14;99483.00;;;20.51;56.29
39051;BME280;24805;55.852;37.644;2022-07-09T00:16:16;99474.59;;;20.47;56.64
39051;BME280;24805;55.852;37.644;2022-07-09T00:21:18;99480.13;;;20.41;56.97
39051;BME280;24805;55.852;37.644;2022-07-09T00:26:20;99474.63;;;20.36;57.37
39051;BME280;24805;55.852;37.644;2022-07-09T00:31:23;99467.50;;;20.29;57.79
39051;BME280;24805;55.852;37.644;2022-07-09T00:36:25;99482.75;;;20.24;58.01
39051;BME280;24805;55.852;37.644;2022-07-09T00:41:27;99482.91;;;20.17;58.32
39051;BME280;24805;55.852;37.644;2022-07-09T00:46:29;99484.94;;;20.10;58.98
39051;BME280;24805;55.852;37.644;2022-07-09T00:51:32;99484.34;;;20.08;58.61
39051;BME280;24805;55.852;37.644;2022-07-09T00:56:34;99486.47;;;20.06;59.33
39051;BME280;24805;55.852;37.644;2022-07-09T01:01:36;99490.44;;;20.04;59.37
39051;BME280;24805;55.852;37.644;2022-07-09T01:06:39;99487.41;;;20.00;59.36
39051;BME280;24805;55.852;37.644;2022-07-09T01:11:41;99482.53;;;19.97;59.40
39051;BME280;24805;55.852;37.644;2022-07-09T01:16:43;99484.41;;;19.97;59.81
39051;BME280;24805;55.852;37.644;2022-07-09T01:21:45;99494.34;;;19.96;59.96
39051;BME280;24805;55.852;37.644;2022-07-09T01:26:48;99489.56;;;19.98;60.18
39051;BME280;24805;55.852;37.644;2022-07-09T01:31:50;99483.66;;;20.01;60.06
39051;BME280;24805;55.852;37.644;2022-07-09T01:36:52;99489.75;;;20.08;59.91
39051;BME280;24805;55.852;37.644;2022-07-09T01:41:55;99481.41;;;20.10;59.91
39051;BME280;24805;55.852;37.644;2022-07-09T01:46:57;99493.84;;;20.11;59.10
39051;BME280;24805;55.852;37.644;2022-07-09T01:51:59;99483.16;;;20.16;59.05
39051;BME280;24805;55.852;37.644;2022-07-09T01:57:02;99486.50;;;20.23;58.22
39051;BME280;24805;55.852;37.644;2022-07-09T02:02:04;99480.03;;;20.36;58.34
39051;BME280;24805;55.852;37.644;2022-07-09T02:07:07;99474.03;;;20.45;58.05
39051;BME280;24805;55.852;37.644;2022-07-09T02:12:09;99477.16;;;20.54;57.75
39051;BME280;24805;55.852;37.644;2022-07-09T02:17:11;99462.84;;;20.53;57.21
39051;BME280;24805;55.852;37.644;2022-07-09T02:22:14;99482.53;;;20.71;57.26
39051;BME280;24805;55.852;37.644;2022-07-09T02:27:16;99496.75;;;20.83;57.09
39051;BME280;24805;55.852;37.644;2022-07-09T02:32:18;99485.47;;;20.86;55.86
39051;BME280;24805;55.852;37.644;2022-07-09T02:37:20;99487.94;;;20.87;55.61
39051;BME280;24805;55.852;37.644;2022-07-09T02:42:22;99496.94;;;20.93;54.72
39051;BME280;24805;55.852;37.644;2022-07-09T02:47:25;99500.59;;;21.04;53.87
39051;BME280;24805;55.852;37.644;2022-07-09T02:52:27;99477.56;;;20.96;53.90
39051;BME280;24805;55.852;37.644;2022-07-09T02:57:29;99503.31;;;21.20;53.02
39051;BME280;24805;55.852;37.644;2022-07-09T03:02:31;99508.78;;;21.25;52.85
39051;BME280;24805;55.852;37.644;2022-07-09T03:07:34;99515.25;;;21.24;52.39
39051;BME280;24805;55.852;37.644;2022-07-09T03:12:36;99507.81;;;21.31;52.58
39051;BME280;24805;55.852;37.644;2022-07-09T03:17:38;99501.16;;;21.39;51.99
39051;BME280;24805;55.852;37.644;2022-07-09T03:22:41;99509.00;;;21.57;51.65
39051;BME280;24805;55.852;37.644;2022-07-09T03:27:43;99504.84;;;21.72;51.09
39051;BME280;24805;55.852;37.644;2022-07-09T03:32:46;99501.19;;;21.83;51.02
39051;BME280;24805;55.852;37.644;2022-07-09T03:37:48;99490.59;;;21.98;50.61
39051;BME280;24805;55.852;37.644;2022-07-09T03:42:50;99490.47;;;22.10;50.62
39051;BME280;24805;55.852;37.644;2022-07-09T03:47:53;99501.94;;;22.22;50.41
39051;BME280;24805;55.852;37.644;2022-07-09T03:52:55;99510.69;;;22.29;49.77
39051;BME280;24805;55.852;37.644;2022-07-09T03:57:57;99493.22;;;22.37;49.50
39051;BME280;24805;55.852;37.644;2022-07-09T04:02:59;99473.56;;;22.46;49.17
39051;BME280;24805;55.852;37.644;2022-07-09T04:08:02;99466.81;;;22.76;48.75
39051;BME280;24805;55.852;37.644;2022-07-09T04:13:04;99451.31;;;23.03;48.17
39051;BME280;24805;55.852;37.644;2022-07-09T04:18:09;99447.53;;;23.46;46.92
39051;BME280;24805;55.852;37.644;2022-07-09T04:23:11;99464.13;;;23.60;45.39
39051;BME280;24805;55.852;37.644;2022-07-09T04:28:13;99475.56;;;23.72;45.09
39051;BME280;24805;55.852;37.644;2022-07-09T04:33:16;99474.00;;;23.86;44.85
39051;BME280;24805;55.852;37.644;2022-07-09T04:38:18;99478.66;;;24.06;44.48
39051;BME280;24805;55.852;37.644;2022-07-09T04:43:21;99484.66;;;24.13;44.03
39051;BME280;24805;55.852;37.644;2022-07-09T04:48:23;99485.47;;;24.19;44.79
39051;BME280;24805;55.852;37.644;2022-07-09T04:53:25;99490.06;;;24.08;43.71
39051;BME280;24805;55.852;37.644;2022-07-09T04:58:28;99490.31;;;24.01;44.64
39051;BME280;24805;55.852;37.644;2022-07-09T05:03:31;99485.69;;;24.02;45.00
39051;BME280;24805;55.852;37.644;2022-07-09T05:08:33;99471.88;;;24.03;45.13
39051;BME280;24805;55.852;37.644;2022-07-09T05:13:37;99474.34;;;24.20;45.34
39051;BME280;24805;55.852;37.644;2022-07-09T05:18:42;99470.09;;;24.29;45.39
39051;BME280;24805;55.852;37.644;2022-07-09T05:23:44;99466.88;;;24.37;45.69
39051;BME280;24805;55.852;37.644;2022-07-09T05:28:46;99466.88;;;24.83;44.74
39051;BME280;24805;55.852;37.644;2022-07-09T05:33:48;99460.38;;;25.15;41.99
39051;BME280;24805;55.852;37.644;2022-07-09T05:38:51;99467.88;;;25.38;41.68
39051;BME280;24805;55.852;37.644;2022-07-09T05:43:54;99458.75;;;25.93;41.16
39051;BME280;24805;55.852;37.644;2022-07-09T05:48:56;99443.66;;;26.60;38.79
39051;BME280;24805;55.852;37.644;2022-07-09T05:53:58;99448.00;;;27.48;36.87
39051;BME280;24805;55.852;37.644;2022-07-09T05:59:00;99464.13;;;27.92;35.81
39051;BME280;24805;55.852;37.644;2022-07-09T06:04:05;99446.41;;;27.71;35.56
39051;BME280;24805;55.852;37.644;2022-07-09T06:09:07;99447.56;;;28.26;34.51
39051;BME280;24805;55.852;37.644;2022-07-09T06:14:10;99442.44;;;29.22;33.47
39051;BME280;24805;55.852;37.644;2022-07-09T06:19:13;99443.28;;;29.64;32.46
39051;BME280;24805;55.852;37.644;2022-07-09T06:24:15;99440.44;;;29.69;31.90
39051;BME280;24805;55.852;37.644;2022-07-09T06:29:18;99428.16;;;29.94;31.73
39051;BME280;24805;55.852;37.644;2022-07-09T06:34:21;99433.88;;;30.56;31.82
39051;BME280;24805;55.852;37.644;2022-07-09T06:39:23;99422.53;;;31.24;29.69
39051;BME280;24805;55.852;37.644;2022-07-09T06:44:44;99428.03;;;31.33;28.83
39051;BME280;24805;55.852;37.644;2022-07-09T06:49:46;99419.81;;;30.71;30.09
39051;BME280;24805;55.852;37.644;2022-07-09T06:54:48;99435.63;;;31.36;29.48
39051;BME280;24805;55.852;37.644;2022-07-09T06:59:50;99422.94;;;30.87;30.07
39051;BME280;24805;55.852;37.644;2022-07-09T07:04:53;99421.09;;;29.65;31.90
39051;BME280;24805;55.852;37.644;2022-07-09T07:09:55;99421.16;;;29.19;32.32
39051;BME280;24805;55.852;37.644;2022-07-09T07:14:57;99420.22;;;28.83;32.78
39051;BME280;24805;55.852;37.644;2022-07-09T07:20:01;99407.44;;;29.10;31.93
39051;BME280;24805;55.852;37.644;2022-07-09T07:25:03;99404.56;;;29.98;31.72
39051;BME280;24805;55.852;37.644;2022-07-09T07:30:06;99411.44;;;31.86;28.96
39051;BME280;24805;55.852;37.644;2022-07-09T07:35:09;99418.63;;;33.03;27.38
39051;BME280;24805;55.852;37.644;2022-07-09T07:40:11;99417.63;;;33.83;26.13
39051;BME280;24805;55.852;37.644;2022-07-09T07:45:14;99414.84;;;34.13;25.58
39051;BME280;24805;55.852;37.644;2022-07-09T07:50:16;99404.34;;;33.85;25.08
39051;BME280;24805;55.852;37.644;2022-07-09T07:55:18;99414.16;;;32.90;25.56
39051;BME280;24805;55.852;37.644;2022-07-09T08:00:20;99414.00;;;31.82;27.59
39051;BME280;24805;55.852;37.644;2022-07-09T08:05:24;99411.94;;;30.33;29.72
39051;BME280;24805;55.852;37.644;2022-07-09T08:10:27;99415.28;;;28.98;31.85
39051;BME280;24805;55.852;37.644;2022-07-09T08:15:36;99401.19;;;28.26;33.77
39051;BME280;24805;55.852;37.644;2022-07-09T08:20:39;99434.28;;;28.20;33.99
39051;BME280;24805;55.852;37.644;2022-07-09T08:25:42;99435.97;;;27.97;35.29
39051;BME280;24805;55.852;37.644;2022-07-09T08:30:44;99438.81;;;27.68;35.87
39051;BME280;24805;55.852;37.644;2022-07-09T08:35:46;99441.25;;;27.69;35.90
39051;BME280;24805;55.852;37.644;2022-07-09T08:40:48;99436.06;;;27.68;35.69
39051;BME280;24805;55.852;37.644;2022-07-09T08:45:53;99438.47;;;27.74;36.31
39051;BME280;24805;55.852;37.644;2022-07-09T08:50:57;99432.56;;;27.38;37.36
39051;BME280;24805;55.852;37.644;2022-07-09T08:55:59;99434.53;;;27.09;37.73
39051;BME280;24805;55.852;37.644;2022-07-09T09:01:01;99438.00;;;26.57;39.54
39051;BME280;24805;55.852;37.644;2022-07-09T09:06:07;99444.50;;;26.17;40.58
39051;BME280;24805;55.852;37.644;2022-07-09T09:11:15;99438.00;;;26.13;40.20
39051;BME280;24805;55.852;37.644;2022-07-09T09:16:18;99430.31;;;26.20;40.02
39051;BME280;24805;55.852;37.644;2022-07-09T09:21:23;99430.56;;;26.33;39.85
39051;BME280;24805;55.852;37.644;2022-07-09T09:26:26;99438.47;;;26.64;39.69
39051;BME280;24805;55.852;37.644;2022-07-09T09:31:30;99433.84;;;27.22;38.47
39051;BME280;24805;55.852;37.644;2022-07-09T09:36:53;99435.59;;;27.85;37.28
39051;BME280;24805;55.852;37.644;2022-07-09T09:42:01;99428.19;;;27.66;37.78
39051;BME280;24805;55.852;37.644;2022-07-09T09:47:05;99424.75;;;27.56;38.12
39051;BME280;24805;55.852;37.644;2022-07-09T09:52:09;99413.41;;;27.49;37.98
39051;BME280;24805;55.852;37.644;2022-07-09T09:57:11;99393.63;;;27.62;37.80
39051;BME280;24805;55.852;37.644;2022-07-09T10:02:19;99392.69;;;27.71;37.94
39051;BME280;24805;55.852;37.644;2022-07-09T10:07:22;99364.75;;;27.61;38.28
39051;BME280;24805;55.852;37.644;2022-07-09T10:12:33;99374.97;;;27.93;39.63
39051;BME280;24805;55.852;37.644;2022-07-09T10:17:39;99372.09;;;28.54;37.76
39051;BME280;24805;55.852;37.644;2022-07-09T10:22:44;99374.88;;;27.98;39.15
39051;BME280;24805;55.852;37.644;2022-07-09T10:27:48;99378.41;;;28.17;39.19
39051;BME280;24805;55.852;37.644;2022-07-09T10:33:11;99366.88;;;28.71;39.59
39051;BME280;24805;55.852;37.644;2022-07-09T10:38:14;99347.59;;;28.35;38.02
39051;BME280;24805;55.852;37.644;2022-07-09T10:43:17;99353.72;;;28.08;38.30
39051;BME280;24805;55.852;37.644;2022-07-09T10:48:19;99342.81;;;28.08;36.57
39051;BME280;24805;55.852;37.644;2022-07-09T10:53:28;99341.03;;;29.24;35.14
39051;BME280;24805;55.852;37.644;2022-07-09T10:58:31;99329.78;;;30.02;33.33
39051;BME280;24805;55.852;37.644;2022-07-09T11:03:34;99314.47;;;30.46;31.96
39051;BME280;24805;55.852;37.644;2022-07-09T11:08:36;99306.03;;;30.56;30.96
39051;BME280;24805;55.852;37.644;2022-07-09T11:13:39;99288.81;;;30.56;30.02
39051;BME280;24805;55.852;37.644;2022-07-09T11:18:41;99282.34;;;31.00;29.84
39051;BME280;24805;55.852;37.644;2022-07-09T11:23:48;99278.72;;;31.13;29.10
39051;BME280;24805;55.852;37.644;2022-07-09T11:28:51;99260.63;;;30.55;28.67
39051;BME280;24805;55.852;37.644;2022-07-09T11:33:55;99259.41;;;29.94;30.11
39051;BME280;24805;55.852;37.644;2022-07-09T11:44:30;99250.47;;;29.44;33.15
39051;BME280;24805;55.852;37.644;2022-07-09T11:54:39;99246.09;;;29.79;34.65
39051;BME280;24805;55.852;37.644;2022-07-09T11:59:41;99222.00;;;30.03;34.93
39051;BME280;24805;55.852;37.644;2022-07-09T12:04:45;99223.47;;;30.40;33.73
39051;BME280;24805;55.852;37.644;2022-07-09T12:09:57;99219.66;;;30.50;34.20
39051;BME280;24805;55.852;37.644;2022-07-09T12:15:19;99214.91;;;31.12;32.36
39051;BME280;24805;55.852;37.644;2022-07-09T12:20:39;99206.97;;;30.54;32.44
39051;BME280;24805;55.852;37.644;2022-07-09T12:26:00;99201.44;;;30.76;32.54
39051;BME280;24805;55.852;37.644;2022-07-09T12:31:20;99191.38;;;31.37;31.17
39051;BME280;24805;55.852;37.644;2022-07-09T12:36:41;99198.69;;;32.61;29.91
39051;BME280;24805;55.852;37.644;2022-07-09T12:42:00;99189.06;;;33.05;28.83
39051;BME280;24805;55.852;37.644;2022-07-09T12:47:03;99187.56;;;32.11;30.21
39051;BME280;24805;55.852;37.644;2022-07-09T12:52:05;99174.13;;;31.28;31.69
39051;BME280;24805;55.852;37.644;2022-07-09T12:57:08;99166.63;;;30.86;31.78
39051;BME280;24805;55.852;37.644;2022-07-09T13:02:11;99156.34;;;30.43;32.39
39051;BME280;24805;55.852;37.644;2022-07-09T13:07:13;99154.16;;;30.14;32.84
39051;BME280;24805;55.852;37.644;2022-07-09T13:12:15;99157.09;;;30.26;32.69
39051;BME280;24805;55.852;37.644;2022-07-09T13:17:19;99158.22;;;30.25;33.16
39051;BME280;24805;55.852;37.644;2022-07-09T13:22:32;99157.19;;;30.52;32.48
39051;BME280;24805;55.852;37.644;2022-07-09T13:27:34;99165.84;;;30.45;32.40
39051;BME280;24805;55.852;37.644;2022-07-09T13:32:36;99166.16;;;31.01;31.40
39051;BME280;24805;55.852;37.644;2022-07-09T13:37:38;99152.19;;;31.45;30.84
39051;BME280;24805;55.852;37.644;2022-07-09T13:42:41;99155.53;;;31.60;30.73
39051;BME280;24805;55.852;37.644;2022-07-09T13:47:43;99159.16;;;30.60;32.24
39051;BME280;24805;55.852;37.644;2022-07-09T13:52:45;99148.38;;;29.40;34.12
39051;BME280;24805;55.852;37.644;2022-07-09T13:57:47;99159.53;;;28.80;35.88
39051;BME280;24805;55.852;37.644;2022-07-09T14:02:49;99160.56;;;28.29;36.66
39051;BME280;24805;55.852;37.644;2022-07-09T14:07:51;99154.16;;;28.06;37.17
39051;BME280;24805;55.852;37.644;2022-07-09T14:12:54;99157.84;;;27.83;37.61
39051;BME280;24805;55.852;37.644;2022-07-09T14:17:56;99139.84;;;27.68;38.00
39051;BME280;24805;55.852;37.644;2022-07-09T14:22:58;99137.78;;;27.60;37.99
39051;BME280;24805;55.852;37.644;2022-07-09T14:28:00;99139.47;;;27.56;38.26
39051;BME280;24805;55.852;37.644;2022-07-09T14:33:02;99132.50;;;27.50;38.52
39051;BME280;24805;55.852;37.644;2022-07-09T14:38:04;99135.22;;;27.50;38.26
39051;BME280;24805;55.852;37.644;2022-07-09T14:43:06;99120.88;;;27.44;38.66
39051;BME280;24805;55.852;37.644;2022-07-09T14:48:08;99134.63;;;27.53;38.83
39051;BME280;24805;55.852;37.644;2022-07-09T14:53:11;99142.06;;;27.48;38.84
39051;BME280;24805;55.852;37.644;2022-07-09T14:58:13;99130.63;;;27.32;39.51
39051;BME280;24805;55.852;37.644;2022-07-09T15:03:15;99136.44;;;27.25;39.76
39051;BME280;24805;55.852;37.644;2022-07-09T15:08:17;99130.69;;;27.27;39.53
39051;BME280;24805;55.852;37.644;2022-07-09T15:13:19;99127.66;;;27.28;40.02
39051;BME280;24805;55.852;37.644;2022-07-09T15:18:22;99133.69;;;27.44;40.01
39051;BME280;24805;55.852;37.644;2022-07-09T15:23:24;99142.06;;;27.48;39.84
39051;BME280;24805;55.852;37.644;2022-07-09T15:28:26;99137.44;;;27.48;40.29
39051;BME280;24805;55.852;37.644;2022-07-09T15:33:28;99136.00;;;27.37;40.47
39051;BME280;24805;55.852;37.644;2022-07-09T15:38:30;99129.94;;;27.21;40.99
39051;BME280;24805;55.852;37.644;2022-07-09T15:43:32;99142.84;;;26.97;41.54
39051;BME280;24805;55.852;37.644;2022-07-09T15:48:34;99121.75;;;26.84;42.35
39051;BME280;24805;55.852;37.644;2022-07-09T15:53:37;99123.03;;;26.72;42.78
39051;BME280;24805;55.852;37.644;2022-07-09T15:58:39;99119.03;;;26.65;43.10
39051;BME280;24805;55.852;37.644;2022-07-09T16:03:42;99109.97;;;26.51;42.89
39051;BME280;24805;55.852;37.644;2022-07-09T16:08:44;99106.84;;;26.38;42.99
39051;BME280;24805;55.852;37.644;2022-07-09T16:13:46;99105.03;;;26.29;43.69
39051;BME280;24805;55.852;37.644;2022-07-09T16:18:49;99095.31;;;26.23;43.44
39051;BME280;24805;55.852;37.644;2022-07-09T16:23:51;99095.75;;;26.11;43.59
39051;BME280;24805;55.852;37.644;2022-07-09T16:28:54;99085.34;;;25.94;43.24
39051;BME280;24805;55.852;37.644;2022-07-09T16:33:56;99072.97;;;25.78;43.25
39051;BME280;24805;55.852;37.644;2022-07-09T16:38:58;99077.19;;;25.65;43.79
39051;BME280;24805;55.852;37.644;2022-07-09T16:44:00;99075.59;;;25.59;43.83
39051;BME280;24805;55.852;37.644;2022-07-09T16:49:02;99078.16;;;25.46;43.92
39051;BME280;24805;55.852;37.644;2022-07-09T16:54:05;99080.75;;;25.32;44.04
39051;BME280;24805;55.852;37.644;2022-07-09T16:59:07;99065.91;;;25.19;44.25
39051;BME280;24805;55.852;37.644;2022-07-09T17:04:09;99073.59;;;25.07;44.87
39051;BME280;24805;55.852;37.644;2022-07-09T17:09:12;99067.19;;;24.88;45.08
39051;BME280;24805;55.852;37.644;2022-07-09T17:14:16;99087.28;;;24.87;45.49
39051;BME280;24805;55.852;37.644;2022-07-09T17:19:18;99088.72;;;24.74;45.66
39051;BME280;24805;55.852;37.644;2022-07-09T17:24:20;99086.34;;;24.62;45.92
39051;BME280;24805;55.852;37.644;2022-07-09T17:29:22;99085.88;;;24.50;46.72
39051;BME280;24805;55.852;37.644;2022-07-09T17:34:24;99099.22;;;24.36;47.24
39051;BME280;24805;55.852;37.644;2022-07-09T17:39:26;99099.53;;;24.25;47.77
39051;BME280;24805;55.852;37.644;2022-07-09T17:44:29;99100.91;;;24.17;48.26
39051;BME280;24805;55.852;37.644;2022-07-09T17:49:33;99082.28;;;23.95;48.16
39051;BME280;24805;55.852;37.644;2022-07-09T17:54:35;99108.81;;;23.93;48.50
39051;BME280;24805;55.852;37.644;2022-07-09T17:59:37;99112.34;;;23.84;48.96
39051;BME280;24805;55.852;37.644;2022-07-09T18:04:39;99113.19;;;23.74;49.27
39051;BME280;24805;55.852;37.644;2022-07-09T18:09:41;99117.25;;;23.61;49.57
39051;BME280;24805;55.852;37.644;2022-07-09T18:14:43;99107.81;;;23.54;50.14
39051;BME280;24805;55.852;37.644;2022-07-09T18:19:46;99073.66;;;23.32;50.44
39051;BME280;24805;55.852;37.644;2022-07-09T18:24:48;99089.09;;;23.32;51.06
39051;BME280;24805;55.852;37.644;2022-07-09T18:29:50;99079.59;;;23.19;51.15
39051;BME280;24805;55.852;37.644;2022-07-09T18:34:52;99064.75;;;23.12;51.83
39051;BME280;24805;55.852;37.644;2022-07-09T18:39:55;99056.88;;;23.00;52.09
39051;BME280;24805;55.852;37.644;2022-07-09T18:44:57;99055.00;;;22.90;52.62
39051;BME280;24805;55.852;37.644;2022-07-09T18:50:00;99048.75;;;22.80;52.95
39051;BME280;24805;55.852;37.644;2022-07-09T18:55:04;99051.97;;;22.77;53.16
39051;BME280;24805;55.852;37.644;2022-07-09T19:00:07;99057.38;;;22.72;53.91
39051;BME280;24805;55.852;37.644;2022-07-09T19:05:10;99061.41;;;22.69;53.92
39051;BME280;24805;55.852;37.644;2022-07-09T19:10:12;99053.84;;;22.66;54.17
39051;BME280;24805;55.852;37.644;2022-07-09T19:15:15;99028.69;;;22.55;54.17
39051;BME280;24805;55.852;37.644;2022-07-09T19:20:17;99033.25;;;22.60;54.87
39051;BME280;24805;55.852;37.644;2022-07-09T19:25:20;99006.50;;;22.48;54.95
39051;BME280;24805;55.852;37.644;2022-07-09T19:31:09;99019.19;;;22.48;55.21
39051;BME280;24805;55.852;37.644;2022-07-09T19:36:32;99036.78;;;22.50;55.47
39051;BME280;24805;55.852;37.644;2022-07-09T19:41:35;99044.31;;;22.43;55.96
39051;BME280;24805;55.852;37.644;2022-07-09T19:46:37;99040.25;;;22.46;56.12
39051;BME280;24805;55.852;37.644;2022-07-09T19:51:39;99042.72;;;22.52;56.18
39051;BME280;24805;55.852;37.644;2022-07-09T19:56:41;99048.13;;;22.62;55.90
39051;BME280;24805;55.852;37.644;2022-07-09T20:01:44;99059.53;;;22.75;55.63
39051;BME280;24805;55.852;37.644;2022-07-09T20:06:46;99063.91;;;22.86;55.50
39051;BME280;24805;55.852;37.644;2022-07-09T20:11:48;99070.63;;;22.78;61.62
39051;BME280;24805;55.852;37.644;2022-07-09T20:16:50;99051.00;;;21.73;61.80
39051;BME280;24805;55.852;37.644;2022-07-09T20:21:52;99042.00;;;20.88;63.49
39051;BME280;24805;55.852;37.644;2022-07-09T20:26:54;99050.22;;;20.50;68.40
39051;BME280;24805;55.852;37.644;2022-07-09T20:31:57;99048.53;;;20.44;70.24
39051;BME280;24805;55.852;37.644;2022-07-09T20:37:00;99047.59;;;20.55;69.82
39051;BME280;24805;55.852;37.644;2022-07-09T20:42:03;99046.63;;;20.66;70.28
39051;BME280;24805;55.852;37.644;2022-07-09T20:47:05;99035.66;;;20.73;71.22
39051;BME280;24805;55.852;37.644;2022-07-09T20:52:13;99033.81;;;20.78;70.35
39051;BME280;24805;55.852;37.644;2022-07-09T20:57:15;99029.00;;;20.85;71.48
39051;BME280;24805;55.852;37.644;2022-07-09T21:02:17;99028.88;;;20.97;70.66
39051;BME280;24805;55.852;37.644;2022-07-09T21:07:19;99006.00;;;21.05;70.29
39051;BME280;24805;55.852;37.644;2022-07-09T21:12:21;98998.81;;;21.15;71.56
39051;BME280;24805;55.852;37.644;2022-07-09T21:17:24;99004.25;;;21.20;71.88
39051;BME280;24805;55.852;37.644;2022-07-09T21:22:44;99012.94;;;21.27;71.92
39051;BME280;24805;55.852;37.644;2022-07-09T21:27:46;98998.63;;;21.27;71.65
39051;BME280;24805;55.852;37.644;2022-07-09T21:32:48;98999.97;;;21.24;70.30
39051;BME280;24805;55.852;37.644;2022-07-09T21:37:51;99009.38;;;21.22;69.89
39051;BME280;24805;55.852;37.644;2022-07-09T21:42:53;98996.63;;;21.12;69.70
39051;BME280;24805;55.852;37.644;2022-07-09T21:47:56;99007.75;;;21.21;70.47
39051;BME280;24805;55.852;37.644;2022-07-09T21:52:58;98987.78;;;21.22;70.25
39051;BME280;24805;55.852;37.644;2022-07-09T21:58:00;98977.81;;;21.22;70.42
39051;BME280;24805;55.852;37.644;2022-07-09T22:03:02;98959.19;;;21.21;70.57
39051;BME280;24805;55.852;37.644;2022-07-09T22:08:04;98937.63;;;21.21;70.82
39051;BME280;24805;55.852;37.644;2022-07-09T22:13:09;98938.72;;;21.25;70.74
39051;BME280;24805;55.852;37.644;2022-07-09T22:18:11;98934.97;;;21.26;71.16
39051;BME280;24805;55.852;37.644;2022-07-09T22:23:14;98931.19;;;21.27;70.79
39051;BME280;24805;55.852;37.644;2022-07-09T22:28:16;98956.53;;;21.26;69.34
39051;BME280;24805;55.852;37.644;2022-07-09T22:33:19;98959.66;;;21.13;69.85
39051;BME280;24805;55.852;37.644;2022-07-09T22:38:21;98980.72;;;21.16;68.80
39051;BME280;24805;55.852;37.644;2022-07-09T22:43:23;98988.22;;;21.09;71.03
39051;BME280;24805;55.852;37.644;2022-07-09T22:48:25;98994.88;;;20.96;71.00
39051;BME280;24805;55.852;37.644;2022-07-09T22:53:27;98992.84;;;20.81;70.04
39051;BME280;24805;55.852;37.644;2022-07-09T22:58:30;98970.16;;;20.72;71.62
39051;BME280;24805;55.852;37.644;2022-07-09T23:03:32;98986.00;;;20.69;71.43
39051;BME280;24805;55.852;37.644;2022-07-09T23:08:35;99024.50;;;20.64;71.57
39051;BME280;24805;55.852;37.644;2022-07-09T23:13:56;99029.63;;;20.66;70.99
39051;BME280;24805;55.852;37.644;2022-07-09T23:19:04;99030.75;;;20.70;71.16
39051;BME280;24805;55.852;37.644;2022-07-09T23:24:07;99041.28;;;20.71;69.58
39051;BME280;24805;55.852;37.644;2022-07-09T23:29:09;99028.69;;;20.77;69.87
39051;BME280;24805;55.852;37.644;2022-07-09T23:34:11;99028.88;;;20.70;70.30
39051;BME280;24805;55.852;37.644;2022-07-09T23:39:14;99040.41;;;20.39;70.81
39051;BME280;24805;55.852;37.644;2022-07-09T23:44:16;99043.38;;;19.99;72.98
39051;BME280;24805;55.852;37.644;2022-07-09T23:49:18;99030.44;;;19.74;74.52
39051;BME280;24805;55.852;37.644;2022-07-09T23:54:20;99018.09;;;19.56;75.94
39051;BME280;24805;55.852;37.644;2022-07-09T23:59:22;99036.91;;;19.22;76.70
